Curtis, AR (71728)

03:13 CDT le 30 juillet 2015 (GMT -0500)
Florence Mem AP, Arkadelphia, | | Change Station
CLOSE
Current Station
Aéroport
Location: Florence Mem AP, Arkadelphia,,
Altitude: 184 ft
Stations météo à proximité

Alt. 184 ft 34.10 °N, 93.07 °W | Updated 17 minutes ago

Ciel dégagé
Ciel dégagé
78 ° F
Paraît 78 ° F
N
0
Vent Variable Vent de Nord

Aujourd'hui
Haut(e) -- | Bas -- ° F
--% Risque de précip.
Hier
Haut(e) -- | Bas -- ° F
Precip. -- pouce
6:22 AM 8:15 PM
Lune gibbeuse croissante, 98% visible
Pression 30.06 pouce
Visibilité 8.0 Miles terrestres
Nuages Ciel dégagé
Point de rosée 78 ° F
Humidité 100%
Précipitations 0.00 pouce
Profondeur de la couche neigeuse Non disponible.
UV 0 sur 12
Pollen 4.40 sur 12
Qualité de l'air Non disponible.
Flu Activity Non disponible.
METAR KADF 300756Z AUTO 00000KT 8SM CLR 26/26 A3003 RMK AO2 T02550255 SLP180

More Conditions Fewer Conditions

Pression 30.06 pouce
Visibilité 8.0 Miles terrestres
Nuages Ciel dégagé
Point de rosée 78 ° F
Humidité 100%
Précipitations 0.00 pouce
Profondeur de la couche neigeuse Non disponible.
UV 0 sur 12
Pollen 4.40 sur 12
Qualité de l'air Non disponible.
Flu Activity Non disponible.
METAR KADF 300756Z AUTO 00000KT 8SM CLR 26/26 A3003 RMK AO2 T02550255 SLP180

More Conditions Fewer Conditions

10-Day Weather Forecast

×

Almanac

Astronomie

Jul. 30, 2015 Lever Coucher
Temps réel
Crépuscule civil
Crépuscule nautique
Crépuscule astronomique
Lune
Durée de lumière visible
Longueur du jour
Tomorrow will be .
, % of the Moon is Illuminated

Extrêmes aujourd'hui

State Highs State Lows

Community

WunderPhotos

Upload Photos

1,842,315 Photos téléchargées !

WunderBlogs® & News

Nearby

Qualité de l'air

  Qualité de l'air Indice de la qualité de l'air Polluant
Not available.

Épaisseur de neige

Station Depth Altitude

Activité sismique

Ville Distance Mag. Time & Date
Minimum magnitude displayed is 2.5.

Températures des eaux côtières

Lieu Température

Stations

Stations météo à proximité

Emplacement de la station Température Refroidissement éolien Point de rosée Humidité Vent Precip. Alt. Mise à jour Type